John P. Tully — CG2958 — position and weather

sailwx.info

Track history (hours):
 
Tides and Currents Weather Stations Pressure Air Temp Water Temp Dewpoint Dewpoint Depression Visibility Wind Speed Wind Dir Waves Ship Positions

Oceanographic research ship John P. Tully (Canada)

Detailed information on ship capabilities available from University of Delaware's Ocean Information Center.

Last reported at 2018-May-20 13:30 UTC. Time now 2018-May-20 13:53 UTC.
Position N 48°39' W 123°27'.

Length 68.9 m; beam 14.5 m; draft 4.5 m.

Type: SAR. MMSI: 316114000.

Date/timePositionNaut miles runAvg speedWind from/ knotsBaromVisibWave heightAir tempDewpointWater temp
2018-May-20 13:30N 48°39' W 123°27'0 0.0
2018-May-20 13:01N 48°39' W 123°27'48515.3
2018-May-20 12:55N 49°20' W 124°05'48116.9
2018-May-20 12:30N 48°39' W 123°27'513582.5
2018-May-20 12:30N 49°22' W 124°09'51104.5
2018-May-20 12:01N 48°39' W 123°27'5417741.3
2018-May-20 12:00N 49°24' W 124°14'54109.1
2018-May-20 11:31N 48°39' W 123°27'583996.7
2018-May-20 11:30N 49°26' W 124°20'58118.8
2018-May-20 11:00N 48°39' W 123°27'617115.2
2018-May-20 11:00N 49°28' W 124°25'61124.7
2018-May-20 10:30N 48°39' W 123°27'67295.6
2018-May-20 10:17N 49°31' W 124°31'67241.9
2018-May-20 10:00N 48°39' W 123°27'69797.4
2018-May-20 09:55N 49°33' W 124°34'69167.2
2018-May-20 09:30N 48°39' W 123°27'731519.9
2018-May-20 09:28N 49°36' W 124°37'73160.6
2018-May-20 09:00N 48°39' W 123°27'771150.9
2018-May-20 08:56N 49°38' W 124°42'77176.9
2018-May-20 08:30N 48°39' W 123°27'805778.2
2018-May-20 08:30N 49°41' W 124°45'80165.2
2018-May-20 08:00N 48°39' W 123°27'8425185.9
2018-May-20 08:00N 49°44' W 124°49'84169.0
2018-May-20 07:30N 48°39' W 123°27'0 0.0
2018-May-20 07:01N 48°39' W 123°27'922688.4
2018-May-20 06:58N 49°49' W 124°58'92197.2
2018-May-20 06:31N 48°39' W 123°27'9526419.8
2018-May-20 06:30N 49°52' W 125°02'95192.2
2018-May-20 06:01N 48°39' W 123°27'1004423.3
2018-May-20 05:59N 49°55' W 125°06'4 7.6
2018-May-20 05:30N 49°58' W 125°10'1031168.6
2018-May-20 05:24N 48°39' W 123°27'0 0.0
2018-May-20 05:00N 48°39' W 123°27'107385805.8
2018-May-20 05:00N 50°01' W 125°13'107214.5
2018-May-20 04:30N 48°39' W 123°27'11218335.3
2018-May-20 04:30N 50°05' W 125°17'5 9.8
2018-May-20 04:00N 50°09' W 125°22'1171209.3
2018-May-20 03:55N 48°39' W 123°27'0 0.0
2018-May-20 03:30N 48°39' W 123°27'120431608.9
2018-May-20 03:30N 50°13' W 125°22'120239.9
2018-May-20 03:00N 48°39' W 123°27'1232322.0
2018-May-20 02:57N 50°16' W 125°24'123275.6
2018-May-20 02:30N 48°39' W 123°27'12732607.7
2018-May-20 02:30N 50°20' W 125°26'127255.6
2018-May-20 02:00N 48°39' W 123°27'0 0.0
2018-May-20 01:31N 48°39' W 123°27'0 0.0
2018-May-20 00:58N 48°39' W 123°27'0 0.0
2018-May-20 00:30N 48°39' W 123°27'0 0.0
2018-May-20 00:00N 48°39' W 123°27'0 0.0
2018-May-19 23:31N 48°39' W 123°27'158403.6
2018-May-19 23:07N 50°29' W 126°22'1581461.1
2018-May-19 23:00N 48°39' W 123°27'0 0.0
2018-May-19 22:30N 48°39' W 123°27'166518.8
2018-May-19 22:11N 50°31' W 126°36'166919.4
2018-May-19 22:00N 48°39' W 123°27'1685443.4
2018-May-19 21:59N 50°32' W 126°40'168358.0
2018-May-19 21:31N 48°39' W 123°27'1732293.4
2018-May-19 21:26N 50°36' W 126°44'173408.0
2018-May-19 21:00N 48°39' W 123°27'0 0.0
2018-May-19 20:31N 48°39' W 123°27'0 0.0
2018-May-19 20:00N 48°39' W 123°27'1661384.8
2018-May-19 19:53N 50°38' W 126°26'166436.3
2018-May-19 19:31N 48°39' W 123°27'162497.0
2018-May-19 19:11N 50°39' W 126°15'162719.4
2018-May-19 18:58N 48°39' W 123°27'0 0.0
2018-May-19 18:27N 48°39' W 123°27'0 0.0
2018-May-19 17:57N 48°39' W 123°27'0 0.0
2018-May-19 17:27N 48°39' W 123°27'0 0.0
2018-May-19 16:57N 48°39' W 123°27'0 0.0
2018-May-19 16:25N 48°39' W 123°27'0 0.0
2018-May-19 16:01N 48°39' W 123°27'0 0.0
2018-May-19 15:31N 48°39' W 123°27'0 0.0
2018-May-19 15:00N 48°39' W 123°27'0 0.0
2018-May-19 14:30N 48°39' W 123°27'0 0.0
2018-May-19 14:00N 48°39' W 123°27'0 0.0
2018-May-19 13:31N 48°39' W 123°27'0 0.0
2018-May-19 12:51N 48°39' W 123°27'0 0.0
2018-May-19 12:16N 48°39' W 123°27'0 0.0
2018-May-19 12:00N 48°39' W 123°27'0 0.0
2018-May-19 11:31N 48°39' W 123°27'0 0.0
2018-May-19 10:57N 48°39' W 123°27'0 0.0
2018-May-19 10:30N 48°39' W 123°27'0 0.0
2018-May-19 10:00N 48°39' W 123°27'0 0.0
2018-May-19 09:30N 48°39' W 123°27'0 0.0
2018-May-19 09:00N 48°39' W 123°27'0 0.0
2018-May-19 08:30N 48°39' W 123°27'0 0.0
2018-May-19 07:57N 48°39' W 123°27'0 0.0
2018-May-19 07:27N 48°39' W 123°27'0 0.0
2018-May-19 06:57N 48°39' W 123°27'0 0.0
2018-May-19 06:31N 48°39' W 123°27'0 0.0
2018-May-19 06:00N 48°39' W 123°27'0 0.0
2018-May-19 05:30N 48°39' W 123°27'0 0.0
2018-May-19 05:00N 48°39' W 123°27'0 0.0
2018-May-19 04:30N 48°39' W 123°27'0 0.0
2018-May-19 04:01N 48°39' W 123°27'0 0.0
2018-May-19 03:30N 48°39' W 123°27'0 0.0
2018-May-19 02:57N 48°39' W 123°27'0 0.0
2018-May-19 02:27N 48°39' W 123°27'0 0.0
2018-May-19 01:57N 48°39' W 123°27'0 0.0
2018-May-19 01:31N 48°39' W 123°27'0 0.0
2018-May-19 00:58N 48°39' W 123°27'0 0.0
2018-May-19 00:30N 48°39' W 123°27'0 0.0
2018-May-19 00:00N 48°39' W 123°27'0 0.0
2018-May-18 23:30N 48°39' W 123°27'0 0.0
2018-May-18 22:58N 48°39' W 123°27'0 0.0
2018-May-18 22:31N 48°39' W 123°27'0 0.0
2018-May-18 21:58N 48°39' W 123°27'0 0.0
2018-May-18 21:30N 48°39' W 123°27'0 0.0
2018-May-18 21:00N 48°39' W 123°27'0 0.0
2018-May-18 20:31N 48°39' W 123°27'0 0.0
2018-May-18 20:00N 48°39' W 123°27'0 0.0
2018-May-18 19:30N 48°39' W 123°27'0 0.0
2018-May-18 19:01N 48°39' W 123°27'0 0.0
2018-May-18 18:31N 48°39' W 123°27'0 0.0
2018-May-18 18:00N 48°39' W 123°27'0 0.0
2018-May-18 17:27N 48°39' W 123°27'0 0.0
2018-May-18 17:00N 48°39' W 123°27'0 0.0
2018-May-18 16:27N 48°39' W 123°27'0 0.0
2018-May-18 16:01N 48°39' W 123°27'0 0.0
2018-May-18 15:31N 48°39' W 123°27'0 0.0
2018-May-18 15:00N 48°39' W 123°27'0 0.0
2018-May-18 14:30N 48°39' W 123°27'0 0.0
2018-May-18 14:00N 48°39' W 123°27'0 0.0
2018-May-18 13:30N 48°39' W 123°27'0 0.0
2018-May-18 13:01N 48°39' W 123°27'0 0.0
2018-May-18 12:30N 48°39' W 123°27'0 0.0
2018-May-18 12:01N 48°39' W 123°27'0 0.0
2018-May-18 11:30N 48°39' W 123°27'0 0.0
2018-May-18 11:00N 48°39' W 123°27'0 0.0
2018-May-18 10:30N 48°39' W 123°27'0 0.0
2018-May-18 10:01N 48°39' W 123°27'0 0.0
2018-May-18 09:30N 48°39' W 123°27'0 0.0
2018-May-18 08:58N 48°39' W 123°27'0 0.0
2018-May-18 08:30N 48°39' W 123°27'0 0.0
2018-May-18 08:00N 48°39' W 123°27'0 0.0
2018-May-18 07:30N 48°39' W 123°27'0 0.0
2018-May-18 07:00N 48°39' W 123°27'0 0.0
2018-May-18 06:31N 48°39' W 123°27'0 0.0
2018-May-18 06:00N 48°39' W 123°27'0 0.0
2018-May-18 05:31N 48°39' W 123°27'0 0.0
2018-May-18 05:00N 48°39' W 123°27'0 0.0
2018-May-18 04:30N 48°39' W 123°27'0 0.0
2018-May-18 04:01N 48°39' W 123°27'0 0.0
2018-May-18 03:30N 48°39' W 123°27'0 0.0
2018-May-18 03:00N 48°39' W 123°27'0 0.0
2018-May-18 02:31N 48°39' W 123°27'0 0.0
2018-May-18 02:01N 48°39' W 123°27'0 0.0
2018-May-18 01:30N 48°39' W 123°27'0 0.0
2018-May-18 01:00N 48°39' W 123°27'0 0.0
2018-May-18 00:31N 48°39' W 123°27'0 0.0
2018-May-18 00:01N 48°39' W 123°27'0 0.0
2018-May-17 23:27N 48°39' W 123°27'0 0.0
2018-May-17 22:39N 48°39' W 123°27'0 0.0
2018-May-17 22:31N 48°39' W 123°27'0 0.0
2018-May-17 22:00N 48°39' W 123°27'0 0.0
2018-May-17 21:31N 48°39' W 123°27'0 0.0
2018-May-17 21:00N 48°39' W 123°27'0 0.0
2018-May-17 20:30N 48°39' W 123°27'0 0.0
2018-May-17 19:58N 48°39' W 123°27'0 0.0
2018-May-17 19:27N 48°39' W 123°27'0 0.0
2018-May-17 19:01N 48°39' W 123°27'0 0.0
2018-May-17 18:31N 48°39' W 123°27'0 0.0
2018-May-17 18:01N 48°39' W 123°27'0 0.0
2018-May-17 17:27N 48°39' W 123°27'0 0.0
2018-May-17 17:00N 48°39' W 123°27'0 0.0
2018-May-17 16:28N 48°39' W 123°27'0 0.0
2018-May-17 16:01N 48°39' W 123°27'0 0.0
2018-May-17 15:27N 48°39' W 123°27'0 0.0
2018-May-17 15:00N 48°39' W 123°27'0 0.0
2018-May-17 14:30N 48°39' W 123°27'0 0.0
2018-May-17 14:00N 48°39' W 123°27'0 0.0
2018-May-17 13:31N 48°39' W 123°27'0 0.0
2018-May-17 13:00N 48°39' W 123°27'0 0.0
2018-May-17 12:27N 48°39' W 123°27'0 0.0
2018-May-17 12:01N 48°39' W 123°27'0 0.0
2018-May-17 11:30N 48°39' W 123°27'0 0.0
2018-May-17 11:00N 48°39' W 123°27'0 0.0
2018-May-17 10:30N 48°39' W 123°27'160492.4
2018-May-17 10:11N 50°39' W 126°10'160913.7
2018-May-17 10:00N 48°39' W 123°27'1615223.7
2018-May-17 09:59N 50°39' W 126°14'161343.3
2018-May-17 09:30N 48°39' W 123°27'0 0.0
2018-May-17 09:01N 48°39' W 123°27'171377.3
2018-May-17 08:33N 50°38' W 126°37'1711769.4
2018-May-17 08:28N 48°39' W 123°27'1731267.9
2018-May-17 08:19N 50°38' W 126°41'173551.4
2018-May-17 08:01N 48°39' W 123°27'170352.1
2018-May-17 07:32N 50°34' W 126°41'1709714.7
2018-May-17 07:30N 48°39' W 123°27'1705504.6
2018-May-17 07:29N 50°33' W 126°41'170361.8
2018-May-17 07:00N 48°39' W 123°27'163509.4
2018-May-17 06:41N 50°30' W 126°30'163901.2
2018-May-17 06:30N 48°39' W 123°27'158397.5
2018-May-17 06:07N 50°30' W 126°21'1581541.4
2018-May-17 06:00N 48°39' W 123°27'0 0.0
2018-May-17 05:30N 48°39' W 123°27'0 0.0
2018-May-17 05:01N 48°39' W 123°27'0 0.0
2018-May-17 04:30N 48°39' W 123°27'0 0.0
2018-May-17 04:00N 48°39' W 123°27'1371238.0
2018-May-17 03:54N 50°23' W 125°46'137353.1
2018-May-17 03:31N 48°39' W 123°27'130276.8
2018-May-17 03:02N 50°21' W 125°32'1304297.1
2018-May-17 03:00N 48°39' W 123°27'127405.7
2018-May-17 02:42N 50°21' W 125°26'127685.9
2018-May-17 02:30N 48°39' W 123°27'1271022.3
2018-May-17 02:23N 50°22' W 125°21'127338.0
2018-May-17 02:01N 48°39' W 123°27'1291845.2
2018-May-17 01:56N 50°26' W 125°18'129300.2
2018-May-17 01:30N 48°39' W 123°27'125247.5
2018-May-17 01:00N 50°25' W 125°08'1251297.5
2018-May-17 00:54N 48°39' W 123°27'124311.6
2018-May-17 00:31N 50°26' W 125°06'124224012.7
2018-May-17 00:30N 48°39' W 123°27'0 0.0
2018-May-17 00:01N 48°39' W 123°27'125224351.3
2018-May-17 00:00N 50°26' W 125°06'2 4.4
2018-May-16 23:30N 50°28' W 125°04'1263655.5
2018-May-16 23:28N 48°39' W 123°27'0 0.0
2018-May-16 23:00N 48°39' W 123°27'0 0.0
2018-May-16 22:30N 48°39' W 123°27'0 0.0
2018-May-16 22:00N 48°39' W 123°27'0 0.0
2018-May-16 21:30N 48°39' W 123°27'0 0.0
2018-May-16 21:00N 48°39' W 123°27'0 0.0
2018-May-16 20:30N 48°39' W 123°27'0 0.0
2018-May-16 20:01N 48°39' W 123°27'0 0.0
2018-May-16 19:30N 48°39' W 123°27'0 0.0
2018-May-16 19:00N 48°39' W 123°27'0 0.0
2018-May-16 18:30N 48°39' W 123°27'0 0.0
2018-May-16 18:00N 48°39' W 123°27'0 0.0
2018-May-16 17:30N 48°39' W 123°27'0 0.0
2018-May-16 17:00N 48°39' W 123°27'0 0.0
2018-May-16 16:30N 48°39' W 123°27'0 0.0
2018-May-16 16:01N 48°39' W 123°27'0 0.0
2018-May-16 15:30N 48°39' W 123°27'0 0.0
2018-May-16 15:00N 48°39' W 123°27'0 0.0
2018-May-16 14:30N 48°39' W 123°27'0 0.0
2018-May-16 14:01N 48°39' W 123°27'0 0.0
2018-May-16 13:27N 48°39' W 123°27'0 0.0
2018-May-16 13:01N 48°39' W 123°27'0 0.0
2018-May-16 12:30N 48°39' W 123°27'0 0.0
2018-May-16 12:00N 48°39' W 123°27'0 0.0
2018-May-16 11:30N 48°39' W 123°27'0 0.0
2018-May-16 10:57N 48°39' W 123°27'0 0.0
2018-May-16 10:25N 48°39' W 123°27'0 0.0
2018-May-16 10:00N 48°39' W 123°27'0 0.0
2018-May-16 09:30N 48°39' W 123°27'0 0.0
2018-May-16 09:00N 48°39' W 123°27'0 0.0
2018-May-16 08:31N 48°39' W 123°27'0 0.0
2018-May-16 07:57N 48°39' W 123°27'0 0.0
2018-May-16 07:28N 48°39' W 123°27'0 0.0
2018-May-16 07:00N 48°39' W 123°27'0 0.0
2018-May-16 06:30N 48°39' W 123°27'0 0.0
2018-May-16 06:00N 48°39' W 123°27'0 0.0
2018-May-16 05:30N 48°39' W 123°27'0 0.0
2018-May-16 05:00N 48°39' W 123°27'0 0.0
2018-May-16 04:31N 48°39' W 123°27'0 0.0
2018-May-16 04:00N 48°39' W 123°27'0 0.0
2018-May-16 03:30N 48°39' W 123°27'0 0.0
2018-May-16 03:00N 48°39' W 123°27'0 0.0
2018-May-16 02:30N 48°39' W 123°27'0 0.0
2018-May-16 01:58N 48°39' W 123°27'0 0.0
2018-May-16 01:31N 48°39' W 123°27'0 0.0
2018-May-16 01:00N 48°39' W 123°27'0 0.0
2018-May-16 00:30N 48°39' W 123°27'0 0.0
2018-May-16 00:00N 48°39' W 123°27'0 0.0
2018-May-15 23:30N 48°39' W 123°27'0 0.0
2018-May-15 23:01N 48°39' W 123°27'0 0.0
2018-May-15 22:30N 48°39' W 123°27'0 0.0
2018-May-15 22:00N 48°39' W 123°27'0 0.0
2018-May-15 21:31N 48°39' W 123°27'0 0.0
2018-May-15 21:00N 48°39' W 123°27'0 0.0
2018-May-15 20:30N 48°39' W 123°27'0 0.0
2018-May-15 20:00N 48°39' W 123°27'0 0.0
2018-May-15 19:30N 48°39' W 123°27'0 0.0
2018-May-15 19:00N 48°39' W 123°27'0 0.0
2018-May-15 18:30N 48°39' W 123°27'0 0.0
2018-May-15 17:57N 48°39' W 123°27'0 0.0
2018-May-15 17:27N 48°39' W 123°27'0 0.0
2018-May-15 17:01N 48°39' W 123°27'0 0.0
2018-May-15 16:24N 48°39' W 123°27'0 0.0
2018-May-15 16:00N 48°39' W 123°27'0 0.0
2018-May-15 15:30N 48°39' W 123°27'0 0.0
2018-May-15 14:57N 48°39' W 123°27'0 0.0
2018-May-15 14:31N 48°39' W 123°27'0 0.0
2018-May-15 14:00N 48°39' W 123°27'0 0.0
2018-May-15 13:27N 48°39' W 123°27'0 0.0
2018-May-15 13:00N 48°39' W 123°27'0 0.0
2018-May-15 12:31N 48°39' W 123°27'0 0.0
2018-May-15 12:00N 48°39' W 123°27'0 0.0
2018-May-15 11:30N 48°39' W 123°27'0 0.0
2018-May-15 11:00N 48°39' W 123°27'0 0.0
2018-May-15 10:30N 48°39' W 123°27'0 0.0
2018-May-15 10:00N 48°39' W 123°27'0 0.0
2018-May-15 09:27N 48°39' W 123°27'0 0.0
2018-May-15 09:00N 48°39' W 123°27'0 0.0
2018-May-15 08:30N 48°39' W 123°27'0 0.0
2018-May-15 07:58N 48°39' W 123°27'0 0.0
2018-May-15 07:30N 48°39' W 123°27'0 0.0
2018-May-15 07:01N 48°39' W 123°27'0 0.0
2018-May-15 06:27N 48°39' W 123°27'0 0.0
2018-May-15 06:00N 48°39' W 123°27'0 0.0
2018-May-15 05:30N 48°39' W 123°27'0 0.0
2018-May-15 05:01N 48°39' W 123°27'0 0.0
2018-May-15 04:31N 48°39' W 123°27'0 0.0
2018-May-15 04:00N 48°39' W 123°27'0 0.0
2018-May-15 03:31N 48°39' W 123°27'0 0.0
2018-May-15 03:00N 48°39' W 123°27'0 0.0
2018-May-15 02:28N 48°39' W 123°27'0 0.0
2018-May-15 02:00N 48°39' W 123°27'0 0.0
2018-May-15 01:30N 48°39' W 123°27'0 0.0
2018-May-15 01:00N 48°39' W 123°27'0 0.0
2018-May-15 00:30N 48°39' W 123°27'0 0.0
2018-May-15 00:00N 48°39' W 123°27'0 0.0
2018-May-14 23:31N 48°39' W 123°27'0 0.0
2018-May-14 23:00N 48°39' W 123°27'0 0.0
2018-May-14 22:31N 48°39' W 123°27'0 0.0
2018-May-14 22:00N 48°39' W 123°27'0 0.0
2018-May-14 21:31N 48°39' W 123°27'0 0.0
2018-May-14 21:01N 48°39' W 123°27'0 0.0
2018-May-14 20:24N 48°39' W 123°27'0 0.0
2018-May-14 20:00N 48°39' W 123°27'0 0.0
2018-May-14 19:30N 48°39' W 123°27'0 0.0
2018-May-14 19:01N 48°39' W 123°27'0 0.0
2018-May-14 18:31N 48°39' W 123°27'0 0.0
2018-May-14 18:01N 48°39' W 123°27'0 0.0
2018-May-14 17:28N 48°39' W 123°27'0 0.0
2018-May-14 17:00N 48°39' W 123°27'0 0.0
2018-May-14 16:30N 48°39' W 123°27'0 0.0
2018-May-14 15:57N 48°39' W 123°27'0 0.0
2018-May-14 15:25N 48°39' W 123°27'0 0.0
2018-May-14 15:01N 48°39' W 123°27'0 0.0
2018-May-14 14:31N 48°39' W 123°27'0 0.0
2018-May-14 13:57N 48°39' W 123°27'0 0.0
2018-May-14 13:30N 48°39' W 123°27'0 0.0
2018-May-14 13:00N 48°39' W 123°27'0 0.0
2018-May-14 12:30N 48°39' W 123°27'0 0.0
2018-May-14 11:54N 48°39' W 123°27'0 0.0
2018-May-14 11:25N 48°39' W 123°27'0 0.0
2018-May-14 11:00N 48°39' W 123°27'0 0.0
2018-May-14 10:30N 48°39' W 123°27'0 0.0
2018-May-14 10:00N 48°39' W 123°27'0 0.0
2018-May-14 09:30N 48°39' W 123°27'0 0.0
2018-May-14 09:00N 48°39' W 123°27'0 0.0
2018-May-14 08:31N 48°39' W 123°27'0 0.0
2018-May-14 08:01N 48°39' W 123°27'0 0.0
2018-May-14 07:30N 48°39' W 123°27'0 0.0
2018-May-14 07:00N 48°39' W 123°27'0 0.0
2018-May-14 06:31N 48°39' W 123°27'0 0.0
2018-May-14 06:00N 48°39' W 123°27'0 0.0
2018-May-14 05:30N 48°39' W 123°27'0 0.0
2018-May-14 05:01N 48°39' W 123°27'0 0.0
2018-May-14 04:31N 48°39' W 123°27'0 0.0
2018-May-14 04:00N 48°39' W 123°27'0 0.0
2018-May-14 03:30N 48°39' W 123°27'0 0.0
2018-May-14 03:01N 48°39' W 123°27'0 0.0
2018-May-14 02:30N 48°39' W 123°27'0 0.0
2018-May-14 02:00N 48°39' W 123°27'0 0.0
2018-May-14 01:30N 48°39' W 123°27'0 0.0
2018-May-14 01:00N 48°39' W 123°27'0 0.0
2018-May-14 00:30N 48°39' W 123°27'0 0.0
2018-May-14 00:00N 48°39' W 123°27'0 0.0
2018-May-13 23:31N 48°39' W 123°27'0 0.0
2018-May-13 23:00N 48°39' W 123°27'0 0.0
2018-May-13 22:24N 48°39' W 123°27'0 0.0
2018-May-13 22:00N 48°39' W 123°27'0 0.0
2018-May-13 21:30N 48°39' W 123°27'0 0.0
2018-May-13 21:01N 48°39' W 123°27'0 0.0
2018-May-13 20:30N 48°39' W 123°27'0 0.0
2018-May-13 19:55N 48°39' W 123°27'0 0.0
2018-May-13 19:24N 48°39' W 123°27'0 0.0
2018-May-13 18:55N 48°39' W 123°27'0 0.0
2018-May-13 18:28N 48°39' W 123°27'127207.2
2018-May-13 17:51N 50°31' W 125°02'1273552.7
2018-May-13 17:48N 48°39' W 123°27'0 0.0
2018-May-13 17:30N 48°39' W 123°27'127457626.1
2018-May-13 17:30N 50°30' W 125°03'4 8.4
2018-May-13 17:00N 50°26' W 125°05'12344409.3
2018-May-13 17:00N 48°39' W 123°30'120242.0
2018-May-13 16:30N 50°23' W 125°04'12162103.7
2018-May-13 16:30N 48°39' W 123°30'0 0.1
2018-May-13 16:00N 48°39' W 123°30'119214698.6
2018-May-13 16:00N 50°21' W 125°06'4 9.0
2018-May-13 15:30N 50°17' W 125°02'11545893.9
2018-May-13 15:30N 48°39' W 123°30'110221.0
2018-May-13 15:00N 50°13' W 124°58'11035964.6
2018-May-13 15:00N 48°39' W 123°30'0 0.2
2018-May-13 14:30N 48°39' W 123°30'10534422.0
2018-May-13 14:30N 50°09' W 124°54'5 9.4
2018-May-13 14:00N 50°05' W 124°52'10119084.2
2018-May-13 14:00N 48°39' W 123°30'0 0.2
2018-May-13 13:30N 48°39' W 123°30'9716578.1
2018-May-13 13:30N 50°00' W 124°51'5 9.4
2018-May-13 13:00N 49°57' W 124°46'9241478.7
2018-May-13 13:00N 48°39' W 123°30'0 0.2
2018-May-13 12:30N 48°39' W 123°30'8815005.0
2018-May-13 12:30N 49°54' W 124°40'5 9.8
2018-May-13 12:00N 49°51' W 124°35'8333076.6
2018-May-13 12:00N 48°40' W 123°30'78156.7
2018-May-13 11:30N 49°47' W 124°31'7835043.2
2018-May-13 11:30N 48°40' W 123°30'74148.6
2018-May-13 11:00N 49°45' W 124°24'7232493.6
2018-May-13 11:00N 48°42' W 123°30'510.9
2018-May-13 10:30N 48°45' W 123°23'684002.3
2018-May-13 10:29N 49°42' W 124°18'71147.3
2018-May-13 10:00N 48°44' W 123°16'6721833.1
2018-May-13 10:00N 49°38' W 124°14'69139.1
2018-May-13 09:30N 48°44' W 123°09'6523330.8
2018-May-13 09:30N 49°35' W 124°10'4 8.8
2018-May-13 09:00N 49°32' W 124°06'615799.8
2018-May-13 09:00N 48°46' W 123°03'4 7.1
2018-May-13 08:29N 48°50' W 123°03'5416120.1
2018-May-13 08:29N 49°28' W 124°01'4899.3
2018-May-13 08:00N 48°54' W 123°09'510.6
2018-May-13 07:30N 48°58' W 123°15'611.5
2018-May-13 07:00N 49°01' W 123°22'5 9.4
2018-May-13 06:30N 49°06' W 123°24'1750.9
2018-May-13 06:10N 49°23' W 123°28'1262.1
2018-May-13 05:58N 49°11' W 123°22'13140.8
2018-May-13 05:53N 49°24' W 123°25'922.2
2018-May-13 05:30N 49°16' W 123°20'4 9.0
2018-May-13 05:00N 49°19' W 123°15'0 0.7
2018-May-13 04:30N 49°20' W 123°15'0 0.6
2018-May-13 04:00N 49°20' W 123°15'5 9.3
2018-May-13 03:28N 49°20' W 123°23'2 4.0
2018-May-13 02:58N 49°20' W 123°26'3 6.0
2018-May-13 02:29N 49°18' W 123°22'2 4.0
2018-May-13 02:00N 49°16' W 123°24'0 0.2
2018-May-13 01:22N 49°16' W 123°24'0 0.2
2018-May-13 00:36N 49°17' W 123°24'0 1.2
2018-May-13 00:29N 49°17' W 123°24'0 0.4
2018-May-13 00:00N 49°17' W 123°24'0 0.4
2018-May-12 23:28N 49°17' W 123°24'1 2.7
2018-May-12 23:00N 49°16' W 123°23'0 0.5
2018-May-12 22:25N 49°17' W 123°23'0 0.3
2018-May-12 21:52N 49°17' W 123°23'0 0.0
2018-May-12 21:26N 49°17' W 123°23'1 1.1
2018-May-12 20:58N 49°17' W 123°22'0 0.0
2018-May-12 20:30N 49°17' W 123°22'0 0.3
2018-May-12 20:00N 49°17' W 123°22'0 0.1
2018-May-12 19:29N 49°17' W 123°22'513.0
2018-May-12 19:04N 49°22' W 123°19'441.7
2018-May-12 18:59N 49°18' W 123°20'279.7
2018-May-12 18:57N 49°21' W 123°20'3 6.1
2018-May-12 18:30N 49°19' W 123°17'1517.9
2018-May-12 18:30N 49°19' W 123°19'0 0.1
2018-May-12 18:00N 49°19' W 123°19'429.8
2018-May-12 17:53N 49°18' W 123°14'0 0.0
2018-May-12 17:29N 49°18' W 123°14'3409.6
2018-May-12 17:28N 49°20' W 123°18'1 1.3
2018-May-12 17:00N 49°20' W 123°17'3100.4
2018-May-12 16:59N 49°18' W 123°14'3 5.9
2018-May-12 16:31N 49°20' W 123°17'382.5
2018-May-12 16:29N 49°18' W 123°14'3 5.8
2018-May-12 16:00N 49°20' W 123°17'391.6
2018-May-12 15:59N 49°18' W 123°14'3 6.3
2018-May-12 15:30N 49°19' W 123°18'397.0
2018-May-12 15:29N 49°18' W 123°14'2 4.6
2018-May-12 15:00N 49°19' W 123°16'299.1
2018-May-12 14:59N 49°18' W 123°14'2 3.5
2018-May-12 14:31N 49°19' W 123°12'249.6
2018-May-12 14:29N 49°18' W 123°14'2 4.9
2018-May-12 13:59N 49°17' W 123°10'2619.1
2018-May-12 13:59N 49°18' W 123°14'2 4.9
2018-May-12 13:29N 49°17' W 123°10'2677.5
2018-May-12 13:29N 49°18' W 123°14'2 4.9
2018-May-12 12:59N 49°17' W 123°10'2629.7
2018-May-12 12:59N 49°18' W 123°14'0 0.0
2018-May-12 12:29N 49°18' W 123°14'252.1
2018-May-12 12:26N 49°17' W 123°10'0 0.0
2018-May-12 11:59N 49°17' W 123°10'2733.4
2018-May-12 11:59N 49°18' W 123°14'2 4.9
2018-May-12 11:29N 49°17' W 123°10'2677.5
2018-May-12 11:29N 49°18' W 123°14'2 4.9
2018-May-12 10:59N 49°17' W 123°10'2735.2
2018-May-12 10:59N 49°18' W 123°14'2 4.9
2018-May-12 10:29N 49°17' W 123°10'2722.3
2018-May-12 10:29N 49°18' W 123°14'2 4.8
2018-May-12 09:59N 49°17' W 123°10'31099.3
2018-May-12 09:59N 49°18' W 123°15'4 8.4
2018-May-12 09:30N 49°16' W 123°19'6307.3
2018-May-12 09:29N 49°17' W 123°10'816.1
2018-May-12 09:00N 49°13' W 123°19'897.6
2018-May-12 08:56N 49°17' W 123°10'0 0.0
2018-May-12 08:29N 49°17' W 123°10'11305.1
2018-May-12 08:27N 49°08' W 123°20'4 9.2
2018-May-12 08:00N 49°04' W 123°21'15768.6
2018-May-12 07:59N 49°17' W 123°10'0 0.0
2018-May-12 07:29N 49°17' W 123°10'17228.5
2018-May-12 07:24N 49°00' W 123°14'410.4
2018-May-12 07:00N 48°57' W 123°09'2062.0
2018-May-12 06:41N 49°17' W 123°10'0 0.0
2018-May-12 06:29N 49°17' W 123°10'242769.5
2018-May-12 06:28N 48°54' W 123°03'2448.5
2018-May-12 05:59N 49°17' W 123°10'31114.3
2018-May-12 05:43N 48°48' W 123°00'3191.6
2018-May-12 05:23N 49°17' W 123°10'33187.7
2018-May-12 05:12N 48°45' W 123°06'33146.6
2018-May-12 04:59N 49°17' W 123°10'341960.8
2018-May-12 04:58N 48°44' W 123°09'4 8.2
2018-May-12 04:30N 48°44' W 123°15'341220.5
2018-May-12 04:29N 49°17' W 123°10'3370.9
2018-May-12 04:00N 48°45' W 123°22'331217.7
2018-May-12 03:59N 49°17' W 123°10'3777.8
2018-May-12 03:30N 48°42' W 123°28'378899.7
2018-May-12 03:30N 49°18' W 123°10'4080.8
2018-May-12 03:00N 48°39' W 123°28'413990.4
2018-May-12 03:00N 49°19' W 123°15'2 3.7
2018-May-12 02:25N 49°20' W 123°18'41542.7
2018-May-12 02:21N 48°39' W 123°27'40115.9
2018-May-12 02:00N 49°19' W 123°20'40722.8
2018-May-12 01:57N 48°39' W 123°27'4089.3
2018-May-12 01:30N 49°19' W 123°20'40753.0
2018-May-12 01:27N 48°39' W 123°27'4091.7
2018-May-12 01:00N 49°19' W 123°18'40661.5
2018-May-12 00:57N 48°39' W 123°27'4085.9
2018-May-12 00:29N 49°19' W 123°18'401282.0
2018-May-12 00:27N 48°39' W 123°27'4090.0
2018-May-12 00:00N 49°19' W 123°18'40762.5
2018-May-11 23:57N 48°39' W 123°27'4091.2
2018-May-11 23:30N 49°19' W 123°19'40679.7
2018-May-11 23:27N 48°39' W 123°27'4086.9
2018-May-11 22:59N 49°19' W 123°19'401115.9
2018-May-11 22:57N 48°39' W 123°27'3989.0
2018-May-11 22:30N 49°18' W 123°21'39673.8
2018-May-11 22:27N 48°39' W 123°27'3885.8
2018-May-11 22:00N 49°17' W 123°23'38650.2
2018-May-11 21:57N 48°39' W 123°27'3883.3
2018-May-11 21:29N 49°17' W 123°23'38269.2
2018-May-11 21:21N 48°39' W 123°27'38110.3
2018-May-11 21:00N 49°17' W 123°23'38699.9
2018-May-11 20:57N 48°39' W 123°27'3886.3
2018-May-11 20:31N 49°17' W 123°23'38577.9
2018-May-11 20:27N 48°39' W 123°27'3885.2
2018-May-11 20:00N 49°17' W 123°23'38644.6
2018-May-11 19:57N 48°39' W 123°27'3877.3
2018-May-11 19:27N 49°17' W 123°24'38340.0
2018-May-11 19:21N 48°39' W 123°27'38109.5
2018-May-11 19:00N 49°17' W 123°24'38703.8
2018-May-11 18:57N 48°39' W 123°27'3884.9
2018-May-11 18:30N 49°17' W 123°24'38248.4
2018-May-11 18:21N 48°39' W 123°27'38109.2
2018-May-11 18:00N 49°17' W 123°24'38764.6
2018-May-11 17:57N 48°39' W 123°27'3888.0
2018-May-11 17:30N 49°18' W 123°25'38600.4
2018-May-11 17:27N 48°39' W 123°27'4092.0
2018-May-11 17:00N 49°19' W 123°20'40622.1
2018-May-11 16:57N 48°39' W 123°27'4192.4
2018-May-11 16:30N 49°20' W 123°18'41695.9
2018-May-11 16:27N 48°39' W 123°27'4184.1
2018-May-11 15:58N 49°19' W 123°18'412437.9
2018-May-11 15:57N 48°39' W 123°27'4189.6
2018-May-11 15:29N 49°19' W 123°18'41164.3
2018-May-11 15:15N 48°39' W 123°27'41175.0
2018-May-11 15:00N 49°20' W 123°15'41643.9
2018-May-11 14:57N 48°39' W 123°27'4192.9
2018-May-11 14:30N 49°19' W 123°12'41751.3
2018-May-11 14:27N 48°39' W 123°27'4088.4
2018-May-11 14:00N 49°17' W 123°10'40766.2
2018-May-11 13:57N 48°39' W 123°27'4079.4
2018-May-11 13:27N 49°17' W 123°10'4020353.4
2018-May-11 13:27N 48°39' W 123°27'0 0.0
2018-May-11 12:57N 48°39' W 123°27'40132.8
2018-May-11 12:39N 49°17' W 123°10'40195.7
2018-May-11 12:27N 48°39' W 123°27'40828.3
2018-May-11 12:24N 49°17' W 123°10'0 0.0
2018-May-11 12:00N 49°17' W 123°10'40766.0
2018-May-11 11:57N 48°39' W 123°27'4088.3
2018-May-11 11:30N 49°17' W 123°10'40112.5
2018-May-11 11:09N 48°39' W 123°27'40199.9
2018-May-11 10:57N 49°17' W 123°10'40388.3
2018-May-11 10:51N 48°39' W 123°27'4088.3
2018-May-11 10:24N 49°17' W 123°10'0 0.0
2018-May-11 09:48N 49°17' W 123°10'40157.1
2018-May-11 09:33N 48°39' W 123°27'0 0.0
2018-May-11 09:27N 48°39' W 123°27'40828.5
2018-May-11 09:24N 49°17' W 123°10'0 0.0
2018-May-11 09:00N 49°17' W 123°10'40762.0
2018-May-11 08:57N 48°39' W 123°27'4088.3
2018-May-11 08:30N 49°17' W 123°10'40762.0
2018-May-11 08:27N 48°39' W 123°27'0 0.0
2018-May-11 07:57N 48°39' W 123°27'40403.7
2018-May-11 07:51N 49°17' W 123°10'0 0.0
2018-May-11 07:30N 49°17' W 123°10'40766.2
2018-May-11 07:27N 48°39' W 123°27'4079.4
2018-May-11 06:57N 49°17' W 123°10'4023752.6
2018-May-11 06:57N 48°39' W 123°27'4079.4
2018-May-11 06:27N 49°17' W 123°10'0 0.1
2018-May-11 05:48N 49°17' W 123°10'1 5.1
2018-May-11 05:30N 49°19' W 123°11'2 3.5
2018-May-11 05:00N 49°20' W 123°13'1 1.6
2018-May-11 04:30N 49°20' W 123°14'1 2.2
2018-May-11 04:00N 49°20' W 123°16'41267.6
2018-May-11 03:51N 48°39' W 123°27'41115.3
2018-May-11 03:29N 49°19' W 123°17'41117.4
2018-May-11 03:09N 48°39' W 123°27'41265.7
2018-May-11 02:59N 49°19' W 123°17'41871.4
2018-May-11 02:57N 48°39' W 123°27'4192.5
2018-May-11 02:30N 49°19' W 123°17'41252.8
2018-May-11 02:21N 48°39' W 123°27'41121.4
2018-May-11 02:00N 49°19' W 123°18'41631.6
2018-May-11 01:57N 48°39' W 123°27'4187.0
2018-May-11 01:29N 49°19' W 123°18'411218.9
2018-May-11 01:27N 48°39' W 123°27'4091.1
2018-May-11 01:00N 49°19' W 123°18'40732.6
2018-May-11 00:57N 48°39' W 123°27'4090.3
2018-May-11 00:30N 49°19' W 123°20'40684.0
2018-May-11 00:27N 48°39' W 123°27'4085.0
2018-May-10 23:58N 49°19' W 123°19'401331.5
2018-May-10 23:57N 48°39' W 123°27'4091.3
2018-May-10 23:30N 49°19' W 123°18'40692.0
2018-May-10 23:27N 48°39' W 123°27'4089.2
2018-May-10 22:59N 49°19' W 123°18'40861.0
2018-May-10 22:57N 48°39' W 123°27'4092.7
2018-May-10 22:30N 49°19' W 123°18'40636.1
2018-May-10 22:27N 48°39' W 123°27'0 0.0
2018-May-10 22:00N 48°39' W 123°27'412054.2
2018-May-10 21:59N 49°19' W 123°18'4 7.7
2018-May-10 21:30N 49°18' W 123°24'396680.6
2018-May-10 21:30N 48°39' W 123°27'4181.6
2018-May-10 21:00N 49°19' W 123°18'41740.7
2018-May-10 20:56N 48°39' W 123°27'4192.5
2018-May-10 20:30N 49°20' W 123°17'415453.2
2018-May-10 20:29N 48°39' W 123°27'4184.8
2018-May-10 20:00N 49°20' W 123°14'41970.7
2018-May-10 19:58N 48°39' W 123°27'4189.8
2018-May-10 19:30N 49°20' W 123°15'41918.7
2018-May-10 19:28N 48°39' W 123°27'4188.0
2018-May-10 19:00N 49°19' W 123°15'41299.5
2018-May-10 18:51N 48°39' W 123°27'0 0.0
2018-May-10 18:29N 48°39' W 123°27'41147503.8
2018-May-10 18:29N 49°19' W 123°15'0 0.2
2018-May-10 18:00N 49°19' W 123°15'41249.1
2018-May-10 17:51N 48°39' W 123°27'41119.3
2018-May-10 17:30N 49°20' W 123°15'41677.2
2018-May-10 17:26N 48°39' W 123°27'4194.7
2018-May-10 17:00N 49°19' W 123°15'411990.4
2018-May-10 16:59N 48°39' W 123°27'4185.7
2018-May-10 16:30N 49°20' W 123°15'41339.1
2018-May-10 16:23N 48°39' W 123°27'4197.8
2018-May-10 15:58N 49°20' W 123°14'411412.5
2018-May-10 15:56N 48°39' W 123°27'4196.0
2018-May-10 15:30N 49°20' W 123°14'41587.9
2018-May-10 15:26N 48°39' W 123°27'4196.5
2018-May-10 15:00N 49°20' W 123°14'41566.3
2018-May-10 14:56N 48°39' W 123°27'4194.9
2018-May-10 14:30N 49°19' W 123°12'41156.0
2018-May-10 14:14N 48°39' W 123°27'40136.3
2018-May-10 13:57N 49°17' W 123°10'403850.6
2018-May-10 13:56N 48°39' W 123°27'  
Track history (hours):
 
Tides and Currents Weather Stations Pressure Air Temp Water Temp Dewpoint Dewpoint Depression Visibility Wind Speed Wind Dir Waves Ship Positions

Oceanographic research ship John P. Tully (Canada)

Detailed information on ship capabilities available from University of Delaware's Ocean Information Center.

Last reported at 2018-May-20 13:30 UTC. Time now 2018-May-20 13:53 UTC.
Position N 48°39' W 123°27'.

Length 68.9 m; beam 14.5 m; draft 4.5 m.

Type: SAR. MMSI: 316114000.

Date/timePositionNaut miles runAvg speedWind from/ knotsBaromVisibWave heightAir tempDewpointWater temp
2018-May-20 13:30N 48°39' W 123°27'0 0.0
2018-May-20 13:01N 48°39' W 123°27'48515.3
2018-May-20 12:55N 49°20' W 124°05'48116.9
2018-May-20 12:30N 48°39' W 123°27'513582.5
2018-May-20 12:30N 49°22' W 124°09'51104.5
2018-May-20 12:01N 48°39' W 123°27'5417741.3
2018-May-20 12:00N 49°24' W 124°14'54109.1
2018-May-20 11:31N 48°39' W 123°27'583996.7
2018-May-20 11:30N 49°26' W 124°20'58118.8
2018-May-20 11:00N 48°39' W 123°27'617115.2
2018-May-20 11:00N 49°28' W 124°25'61124.7
2018-May-20 10:30N 48°39' W 123°27'67295.6
2018-May-20 10:17N 49°31' W 124°31'67241.9
2018-May-20 10:00N 48°39' W 123°27'69797.4
2018-May-20 09:55N 49°33' W 124°34'69167.2
2018-May-20 09:30N 48°39' W 123°27'731519.9
2018-May-20 09:28N 49°36' W 124°37'73160.6
2018-May-20 09:00N 48°39' W 123°27'771150.9
2018-May-20 08:56N 49°38' W 124°42'77176.9
2018-May-20 08:30N 48°39' W 123°27'805778.2
2018-May-20 08:30N 49°41' W 124°45'80165.2
2018-May-20 08:00N 48°39' W 123°27'8425185.9
2018-May-20 08:00N 49°44' W 124°49'84169.0
2018-May-20 07:30N 48°39' W 123°27'0 0.0
2018-May-20 07:01N 48°39' W 123°27'922688.4
2018-May-20 06:58N 49°49' W 124°58'92197.2
2018-May-20 06:31N 48°39' W 123°27'9526419.8
2018-May-20 06:30N 49°52' W 125°02'95192.2
2018-May-20 06:01N 48°39' W 123°27'1004423.3
2018-May-20 05:59N 49°55' W 125°06'4 7.6
2018-May-20 05:30N 49°58' W 125°10'1031168.6
2018-May-20 05:24N 48°39' W 123°27'0 0.0
2018-May-20 05:00N 48°39' W 123°27'107385805.8
2018-May-20 05:00N 50°01' W 125°13'107214.5
2018-May-20 04:30N 48°39' W 123°27'11218335.3
2018-May-20 04:30N 50°05' W 125°17'5 9.8
2018-May-20 04:00N 50°09' W 125°22'1171209.3
2018-May-20 03:55N 48°39' W 123°27'0 0.0
2018-May-20 03:30N 48°39' W 123°27'120431608.9
2018-May-20 03:30N 50°13' W 125°22'120239.9
2018-May-20 03:00N 48°39' W 123°27'1232322.0
2018-May-20 02:57N 50°16' W 125°24'123275.6
2018-May-20 02:30N 48°39' W 123°27'12732607.7
2018-May-20 02:30N 50°20' W 125°26'127255.6
2018-May-20 02:00N 48°39' W 123°27'0 0.0
2018-May-20 01:31N 48°39' W 123°27'0 0.0
2018-May-20 00:58N 48°39' W 123°27'0 0.0
2018-May-20 00:30N 48°39' W 123°27'0 0.0
2018-May-20 00:00N 48°39' W 123°27'0 0.0
2018-May-19 23:31N 48°39' W 123°27'158403.6
2018-May-19 23:07N 50°29' W 126°22'1581461.1
2018-May-19 23:00N 48°39' W 123°27'0 0.0
2018-May-19 22:30N 48°39' W 123°27'166518.8
2018-May-19 22:11N 50°31' W 126°36'166919.4
2018-May-19 22:00N 48°39' W 123°27'1685443.4
2018-May-19 21:59N 50°32' W 126°40'168358.0
2018-May-19 21:31N 48°39' W 123°27'1732293.4
2018-May-19 21:26N 50°36' W 126°44'173408.0
2018-May-19 21:00N 48°39' W 123°27'0 0.0
2018-May-19 20:31N 48°39' W 123°27'0 0.0
2018-May-19 20:00N 48°39' W 123°27'1661384.8
2018-May-19 19:53N 50°38' W 126°26'166436.3
2018-May-19 19:31N 48°39' W 123°27'162497.0
2018-May-19 19:11N 50°39' W 126°15'162719.4
2018-May-19 18:58N 48°39' W 123°27'0 0.0
2018-May-19 18:27N 48°39' W 123°27'0 0.0
2018-May-19 17:57N 48°39' W 123°27'0 0.0
2018-May-19 17:27N 48°39' W 123°27'0 0.0
2018-May-19 16:57N 48°39' W 123°27'0 0.0
2018-May-19 16:25N 48°39' W 123°27'0 0.0
2018-May-19 16:01N 48°39' W 123°27'0 0.0
2018-May-19 15:31N 48°39' W 123°27'0 0.0
2018-May-19 15:00N 48°39' W 123°27'0 0.0
2018-May-19 14:30N 48°39' W 123°27'0 0.0
2018-May-19 14:00N 48°39' W 123°27'0 0.0
2018-May-19 13:31N 48°39' W 123°27'0 0.0
2018-May-19 12:51N 48°39' W 123°27'0 0.0
2018-May-19 12:16N 48°39' W 123°27'0 0.0
2018-May-19 12:00N 48°39' W 123°27'0 0.0
2018-May-19 11:31N 48°39' W 123°27'0 0.0
2018-May-19 10:57N 48°39' W 123°27'0 0.0
2018-May-19 10:30N 48°39' W 123°27'0 0.0
2018-May-19 10:00N 48°39' W 123°27'0 0.0
2018-May-19 09:30N 48°39' W 123°27'0 0.0
2018-May-19 09:00N 48°39' W 123°27'0 0.0
2018-May-19 08:30N 48°39' W 123°27'0 0.0
2018-May-19 07:57N 48°39' W 123°27'0 0.0
2018-May-19 07:27N 48°39' W 123°27'0 0.0
2018-May-19 06:57N 48°39' W 123°27'0 0.0
2018-May-19 06:31N 48°39' W 123°27'0 0.0
2018-May-19 06:00N 48°39' W 123°27'0 0.0
2018-May-19 05:30N 48°39' W 123°27'0 0.0
2018-May-19 05:00N 48°39' W 123°27'0 0.0
2018-May-19 04:30N 48°39' W 123°27'0 0.0
2018-May-19 04:01N 48°39' W 123°27'0 0.0
2018-May-19 03:30N 48°39' W 123°27'0 0.0
2018-May-19 02:57N 48°39' W 123°27'0 0.0
2018-May-19 02:27N 48°39' W 123°27'0 0.0
2018-May-19 01:57N 48°39' W 123°27'0 0.0
2018-May-19 01:31N 48°39' W 123°27'0 0.0
2018-May-19 00:58N 48°39' W 123°27'0 0.0
2018-May-19 00:30N 48°39' W 123°27'0 0.0
2018-May-19 00:00N 48°39' W 123°27'0 0.0
2018-May-18 23:30N 48°39' W 123°27'0 0.0
2018-May-18 22:58N 48°39' W 123°27'0 0.0
2018-May-18 22:31N 48°39' W 123°27'0 0.0
2018-May-18 21:58N 48°39' W 123°27'0 0.0
2018-May-18 21:30N 48°39' W 123°27'0 0.0
2018-May-18 21:00N 48°39' W 123°27'0 0.0
2018-May-18 20:31N 48°39' W 123°27'0 0.0
2018-May-18 20:00N 48°39' W 123°27'0 0.0
2018-May-18 19:30N 48°39' W 123°27'0 0.0
2018-May-18 19:01N 48°39' W 123°27'0 0.0
2018-May-18 18:31N 48°39' W 123°27'0 0.0
2018-May-18 18:00N 48°39' W 123°27'0 0.0
2018-May-18 17:27N 48°39' W 123°27'0 0.0
2018-May-18 17:00N 48°39' W 123°27'0 0.0
2018-May-18 16:27N 48°39' W 123°27'0 0.0
2018-May-18 16:01N 48°39' W 123°27'0 0.0
2018-May-18 15:31N 48°39' W 123°27'0 0.0
2018-May-18 15:00N 48°39' W 123°27'0 0.0
2018-May-18 14:30N 48°39' W 123°27'0 0.0
2018-May-18 14:00N 48°39' W 123°27'0 0.0
2018-May-18 13:30N 48°39' W 123°27'0 0.0
2018-May-18 13:01N 48°39' W 123°27'0 0.0
2018-May-18 12:30N 48°39' W 123°27'0 0.0
2018-May-18 12:01N 48°39' W 123°27'0 0.0
2018-May-18 11:30N 48°39' W 123°27'0 0.0
2018-May-18 11:00N 48°39' W 123°27'0 0.0
2018-May-18 10:30N 48°39' W 123°27'0 0.0
2018-May-18 10:01N 48°39' W 123°27'0 0.0
2018-May-18 09:30N 48°39' W 123°27'0 0.0
2018-May-18 08:58N 48°39' W 123°27'0 0.0
2018-May-18 08:30N 48°39' W 123°27'0 0.0
2018-May-18 08:00N 48°39' W 123°27'0 0.0
2018-May-18 07:30N 48°39' W 123°27'0 0.0
2018-May-18 07:00N 48°39' W 123°27'0 0.0
2018-May-18 06:31N 48°39' W 123°27'0 0.0
2018-May-18 06:00N 48°39' W 123°27'0 0.0
2018-May-18 05:31N 48°39' W 123°27'0 0.0
2018-May-18 05:00N 48°39' W 123°27'0 0.0
2018-May-18 04:30N 48°39' W 123°27'0 0.0
2018-May-18 04:01N 48°39' W 123°27'0 0.0
2018-May-18 03:30N 48°39' W 123°27'0 0.0
2018-May-18 03:00N 48°39' W 123°27'0 0.0
2018-May-18 02:31N 48°39' W 123°27'0 0.0
2018-May-18 02:01N 48°39' W 123°27'0 0.0
2018-May-18 01:30N 48°39' W 123°27'0 0.0
2018-May-18 01:00N 48°39' W 123°27'0 0.0
2018-May-18 00:31N 48°39' W 123°27'0 0.0
2018-May-18 00:01N 48°39' W 123°27'0 0.0
2018-May-17 23:27N 48°39' W 123°27'0 0.0
2018-May-17 22:39N 48°39' W 123°27'0 0.0
2018-May-17 22:31N 48°39' W 123°27'0 0.0
2018-May-17 22:00N 48°39' W 123°27'0 0.0
2018-May-17 21:31N 48°39' W 123°27'0 0.0
2018-May-17 21:00N 48°39' W 123°27'0 0.0
2018-May-17 20:30N 48°39' W 123°27'0 0.0
2018-May-17 19:58N 48°39' W 123°27'0 0.0
2018-May-17 19:27N 48°39' W 123°27'0 0.0
2018-May-17 19:01N 48°39' W 123°27'0 0.0
2018-May-17 18:31N 48°39' W 123°27'0 0.0
2018-May-17 18:01N 48°39' W 123°27'0 0.0
2018-May-17 17:27N 48°39' W 123°27'0 0.0
2018-May-17 17:00N 48°39' W 123°27'0 0.0
2018-May-17 16:28N 48°39' W 123°27'0 0.0
2018-May-17 16:01N 48°39' W 123°27'0 0.0
2018-May-17 15:27N 48°39' W 123°27'0 0.0
2018-May-17 15:00N 48°39' W 123°27'0 0.0
2018-May-17 14:30N 48°39' W 123°27'0 0.0
2018-May-17 14:00N 48°39' W 123°27'0 0.0
2018-May-17 13:31N 48°39' W 123°27'0 0.0
2018-May-17 13:00N 48°39' W 123°27'0 0.0
2018-May-17 12:27N 48°39' W 123°27'0 0.0
2018-May-17 12:01N 48°39' W 123°27'0 0.0
2018-May-17 11:30N 48°39' W 123°27'0 0.0
2018-May-17 11:00N 48°39' W 123°27'0 0.0
2018-May-17 10:30N 48°39' W 123°27'160492.4
2018-May-17 10:11N 50°39' W 126°10'160913.7
2018-May-17 10:00N 48°39' W 123°27'1615223.7
2018-May-17 09:59N 50°39' W 126°14'161343.3
2018-May-17 09:30N 48°39' W 123°27'0 0.0
2018-May-17 09:01N 48°39' W 123°27'171377.3
2018-May-17 08:33N 50°38' W 126°37'1711769.4
2018-May-17 08:28N 48°39' W 123°27'1731267.9
2018-May-17 08:19N 50°38' W 126°41'173551.4
2018-May-17 08:01N 48°39' W 123°27'170352.1
2018-May-17 07:32N 50°34' W 126°41'1709714.7
2018-May-17 07:30N 48°39' W 123°27'1705504.6
2018-May-17 07:29N 50°33' W 126°41'170361.8
2018-May-17 07:00N 48°39' W 123°27'163509.4
2018-May-17 06:41N 50°30' W 126°30'163901.2
2018-May-17 06:30N 48°39' W 123°27'158397.5
2018-May-17 06:07N 50°30' W 126°21'1581541.4
2018-May-17 06:00N 48°39' W 123°27'0 0.0
2018-May-17 05:30N 48°39' W 123°27'0 0.0
2018-May-17 05:01N 48°39' W 123°27'0 0.0
2018-May-17 04:30N 48°39' W 123°27'0 0.0
2018-May-17 04:00N 48°39' W 123°27'1371238.0
2018-May-17 03:54N 50°23' W 125°46'137353.1
2018-May-17 03:31N 48°39' W 123°27'130276.8
2018-May-17 03:02N 50°21' W 125°32'1304297.1
2018-May-17 03:00N 48°39' W 123°27'127405.7
2018-May-17 02:42N 50°21' W 125°26'127685.9
2018-May-17 02:30N 48°39' W 123°27'1271022.3
2018-May-17 02:23N 50°22' W 125°21'127338.0
2018-May-17 02:01N 48°39' W 123°27'1291845.2
2018-May-17 01:56N 50°26' W 125°18'129300.2
2018-May-17 01:30N 48°39' W 123°27'125247.5
2018-May-17 01:00N 50°25' W 125°08'1251297.5
2018-May-17 00:54N 48°39' W 123°27'124311.6
2018-May-17 00:31N 50°26' W 125°06'124224012.7
2018-May-17 00:30N 48°39' W 123°27'0 0.0
2018-May-17 00:01N 48°39' W 123°27'125224351.3
2018-May-17 00:00N 50°26' W 125°06'2 4.4
2018-May-16 23:30N 50°28' W 125°04'1263655.5
2018-May-16 23:28N 48°39' W 123°27'0 0.0
2018-May-16 23:00N 48°39' W 123°27'0 0.0
2018-May-16 22:30N 48°39' W 123°27'0 0.0
2018-May-16 22:00N 48°39' W 123°27'0 0.0
2018-May-16 21:30N 48°39' W 123°27'0 0.0
2018-May-16 21:00N 48°39' W 123°27'0 0.0
2018-May-16 20:30N 48°39' W 123°27'0 0.0
2018-May-16 20:01N 48°39' W 123°27'0 0.0
2018-May-16 19:30N 48°39' W 123°27'0 0.0
2018-May-16 19:00N 48°39' W 123°27'0 0.0
2018-May-16 18:30N 48°39' W 123°27'0 0.0
2018-May-16 18:00N 48°39' W 123°27'0 0.0
2018-May-16 17:30N 48°39' W 123°27'0 0.0
2018-May-16 17:00N 48°39' W 123°27'0 0.0
2018-May-16 16:30N 48°39' W 123°27'0 0.0
2018-May-16 16:01N 48°39' W 123°27'0 0.0
2018-May-16 15:30N 48°39' W 123°27'0 0.0
2018-May-16 15:00N 48°39' W 123°27'0 0.0
2018-May-16 14:30N 48°39' W 123°27'0 0.0
2018-May-16 14:01N 48°39' W 123°27'0 0.0
2018-May-16 13:27N 48°39' W 123°27'0 0.0
2018-May-16 13:01N 48°39' W 123°27'0 0.0
2018-May-16 12:30N 48°39' W 123°27'0 0.0
2018-May-16 12:00N 48°39' W 123°27'0 0.0
2018-May-16 11:30N 48°39' W 123°27'0 0.0
2018-May-16 10:57N 48°39' W 123°27'0 0.0
2018-May-16 10:25N 48°39' W 123°27'0 0.0
2018-May-16 10:00N 48°39' W 123°27'0 0.0
2018-May-16 09:30N 48°39' W 123°27'0 0.0
2018-May-16 09:00N 48°39' W 123°27'0 0.0
2018-May-16 08:31N 48°39' W 123°27'0 0.0
2018-May-16 07:57N 48°39' W 123°27'0 0.0
2018-May-16 07:28N 48°39' W 123°27'0 0.0
2018-May-16 07:00N 48°39' W 123°27'0 0.0
2018-May-16 06:30N 48°39' W 123°27'0 0.0
2018-May-16 06:00N 48°39' W 123°27'0 0.0
2018-May-16 05:30N 48°39' W 123°27'0 0.0
2018-May-16 05:00N 48°39' W 123°27'0 0.0
2018-May-16 04:31N 48°39' W 123°27'0 0.0
2018-May-16 04:00N 48°39' W 123°27'0 0.0
2018-May-16 03:30N 48°39' W 123°27'0 0.0
2018-May-16 03:00N 48°39' W 123°27'0 0.0
2018-May-16 02:30N 48°39' W 123°27'0 0.0
2018-May-16 01:58N 48°39' W 123°27'0 0.0
2018-May-16 01:31N 48°39' W 123°27'0 0.0
2018-May-16 01:00N 48°39' W 123°27'0 0.0
2018-May-16 00:30N 48°39' W 123°27'0 0.0
2018-May-16 00:00N 48°39' W 123°27'0 0.0
2018-May-15 23:30N 48°39' W 123°27'0 0.0
2018-May-15 23:01N 48°39' W 123°27'0 0.0
2018-May-15 22:30N 48°39' W 123°27'0 0.0
2018-May-15 22:00N 48°39' W 123°27'0 0.0
2018-May-15 21:31N 48°39' W 123°27'0 0.0
2018-May-15 21:00N 48°39' W 123°27'0 0.0
2018-May-15 20:30N 48°39' W 123°27'0 0.0
2018-May-15 20:00N 48°39' W 123°27'0 0.0
2018-May-15 19:30N 48°39' W 123°27'0 0.0
2018-May-15 19:00N 48°39' W 123°27'0 0.0
2018-May-15 18:30N 48°39' W 123°27'0 0.0
2018-May-15 17:57N 48°39' W 123°27'0 0.0
2018-May-15 17:27N 48°39' W 123°27'0 0.0
2018-May-15 17:01N 48°39' W 123°27'0 0.0
2018-May-15 16:24N 48°39' W 123°27'0 0.0
2018-May-15 16:00N 48°39' W 123°27'0 0.0
2018-May-15 15:30N 48°39' W 123°27'0 0.0
2018-May-15 14:57N 48°39' W 123°27'0 0.0
2018-May-15 14:31N 48°39' W 123°27'0 0.0
2018-May-15 14:00N 48°39' W 123°27'0 0.0
2018-May-15 13:27N 48°39' W 123°27'0 0.0
2018-May-15 13:00N 48°39' W 123°27'0 0.0
2018-May-15 12:31N 48°39' W 123°27'0 0.0
2018-May-15 12:00N 48°39' W 123°27'0 0.0
2018-May-15 11:30N 48°39' W 123°27'0 0.0
2018-May-15 11:00N 48°39' W 123°27'0 0.0
2018-May-15 10:30N 48°39' W 123°27'0 0.0
2018-May-15 10:00N 48°39' W 123°27'0 0.0
2018-May-15 09:27N 48°39' W 123°27'0 0.0
2018-May-15 09:00N 48°39' W 123°27'0 0.0
2018-May-15 08:30N 48°39' W 123°27'0 0.0
2018-May-15 07:58N 48°39' W 123°27'0 0.0
2018-May-15 07:30N 48°39' W 123°27'0 0.0
2018-May-15 07:01N 48°39' W 123°27'0 0.0
2018-May-15 06:27N 48°39' W 123°27'0 0.0
2018-May-15 06:00N 48°39' W 123°27'0 0.0
2018-May-15 05:30N 48°39' W 123°27'0 0.0
2018-May-15 05:01N 48°39' W 123°27'0 0.0
2018-May-15 04:31N 48°39' W 123°27'0 0.0
2018-May-15 04:00N 48°39' W 123°27'0 0.0
2018-May-15 03:31N 48°39' W 123°27'0 0.0
2018-May-15 03:00N 48°39' W 123°27'0 0.0
2018-May-15 02:28N 48°39' W 123°27'0 0.0
2018-May-15 02:00N 48°39' W 123°27'0 0.0
2018-May-15 01:30N 48°39' W 123°27'0 0.0
2018-May-15 01:00N 48°39' W 123°27'0 0.0
2018-May-15 00:30N 48°39' W 123°27'0 0.0
2018-May-15 00:00N 48°39' W 123°27'0 0.0
2018-May-14 23:31N 48°39' W 123°27'0 0.0
2018-May-14 23:00N 48°39' W 123°27'0 0.0
2018-May-14 22:31N 48°39' W 123°27'0 0.0
2018-May-14 22:00N 48°39' W 123°27'0 0.0
2018-May-14 21:31N 48°39' W 123°27'0 0.0
2018-May-14 21:01N 48°39' W 123°27'0 0.0
2018-May-14 20:24N 48°39' W 123°27'0 0.0
2018-May-14 20:00N 48°39' W 123°27'0 0.0
2018-May-14 19:30N 48°39' W 123°27'0 0.0
2018-May-14 19:01N 48°39' W 123°27'0 0.0
2018-May-14 18:31N 48°39' W 123°27'0 0.0
2018-May-14 18:01N 48°39' W 123°27'0 0.0
2018-May-14 17:28N 48°39' W 123°27'0 0.0
2018-May-14 17:00N 48°39' W 123°27'0 0.0
2018-May-14 16:30N 48°39' W 123°27'0 0.0
2018-May-14 15:57N 48°39' W 123°27'0 0.0
2018-May-14 15:25N 48°39' W 123°27'0 0.0
2018-May-14 15:01N 48°39' W 123°27'0 0.0
2018-May-14 14:31N 48°39' W 123°27'0 0.0
2018-May-14 13:57N 48°39' W 123°27'0 0.0
2018-May-14 13:30N 48°39' W 123°27'0 0.0
2018-May-14 13:00N 48°39' W 123°27'0 0.0
2018-May-14 12:30N 48°39' W 123°27'0 0.0
2018-May-14 11:54N 48°39' W 123°27'0 0.0
2018-May-14 11:25N 48°39' W 123°27'0 0.0
2018-May-14 11:00N 48°39' W 123°27'0 0.0
2018-May-14 10:30N 48°39' W 123°27'0 0.0
2018-May-14 10:00N 48°39' W 123°27'0 0.0
2018-May-14 09:30N 48°39' W 123°27'0 0.0
2018-May-14 09:00N 48°39' W 123°27'0 0.0
2018-May-14 08:31N 48°39' W 123°27'0 0.0
2018-May-14 08:01N 48°39' W 123°27'0 0.0
2018-May-14 07:30N 48°39' W 123°27'0 0.0
2018-May-14 07:00N 48°39' W 123°27'0 0.0
2018-May-14 06:31N 48°39' W 123°27'0 0.0
2018-May-14 06:00N 48°39' W 123°27'0 0.0
2018-May-14 05:30N 48°39' W 123°27'0 0.0
2018-May-14 05:01N 48°39' W 123°27'0 0.0
2018-May-14 04:31N 48°39' W 123°27'0 0.0
2018-May-14 04:00N 48°39' W 123°27'0 0.0
2018-May-14 03:30N 48°39' W 123°27'0 0.0
2018-May-14 03:01N 48°39' W 123°27'0 0.0
2018-May-14 02:30N 48°39' W 123°27'0 0.0
2018-May-14 02:00N 48°39' W 123°27'0 0.0
2018-May-14 01:30N 48°39' W 123°27'0 0.0
2018-May-14 01:00N 48°39' W 123°27'0 0.0
2018-May-14 00:30N 48°39' W 123°27'0 0.0
2018-May-14 00:00N 48°39' W 123°27'0 0.0
2018-May-13 23:31N 48°39' W 123°27'0 0.0
2018-May-13 23:00N 48°39' W 123°27'0 0.0
2018-May-13 22:24N 48°39' W 123°27'0 0.0
2018-May-13 22:00N 48°39' W 123°27'0 0.0
2018-May-13 21:30N 48°39' W 123°27'0 0.0
2018-May-13 21:01N 48°39' W 123°27'0 0.0
2018-May-13 20:30N 48°39' W 123°27'0 0.0
2018-May-13 19:55N 48°39' W 123°27'0 0.0
2018-May-13 19:24N 48°39' W 123°27'0 0.0
2018-May-13 18:55N 48°39' W 123°27'0 0.0
2018-May-13 18:28N 48°39' W 123°27'127207.2
2018-May-13 17:51N 50°31' W 125°02'1273552.7
2018-May-13 17:48N 48°39' W 123°27'0 0.0
2018-May-13 17:30N 48°39' W 123°27'127457626.1
2018-May-13 17:30N 50°30' W 125°03'4 8.4
2018-May-13 17:00N 50°26' W 125°05'12344409.3
2018-May-13 17:00N 48°39' W 123°30'120242.0
2018-May-13 16:30N 50°23' W 125°04'12162103.7
2018-May-13 16:30N 48°39' W 123°30'0 0.1
2018-May-13 16:00N 48°39' W 123°30'119214698.6
2018-May-13 16:00N 50°21' W 125°06'4 9.0
2018-May-13 15:30N 50°17' W 125°02'11545893.9
2018-May-13 15:30N 48°39' W 123°30'110221.0
2018-May-13 15:00N 50°13' W 124°58'11035964.6
2018-May-13 15:00N 48°39' W 123°30'0 0.2
2018-May-13 14:30N 48°39' W 123°30'10534422.0
2018-May-13 14:30N 50°09' W 124°54'5 9.4
2018-May-13 14:00N 50°05' W 124°52'10119084.2
2018-May-13 14:00N 48°39' W 123°30'0 0.2
2018-May-13 13:30N 48°39' W 123°30'9716578.1
2018-May-13 13:30N 50°00' W 124°51'5 9.4
2018-May-13 13:00N 49°57' W 124°46'9241478.7
2018-May-13 13:00N 48°39' W 123°30'0 0.2
2018-May-13 12:30N 48°39' W 123°30'8815005.0
2018-May-13 12:30N 49°54' W 124°40'5 9.8
2018-May-13 12:00N 49°51' W 124°35'8333076.6
2018-May-13 12:00N 48°40' W 123°30'78156.7
2018-May-13 11:30N 49°47' W 124°31'7835043.2
2018-May-13 11:30N 48°40' W 123°30'74148.6
2018-May-13 11:00N 49°45' W 124°24'7232493.6
2018-May-13 11:00N 48°42' W 123°30'510.9
2018-May-13 10:30N 48°45' W 123°23'684002.3
2018-May-13 10:29N 49°42' W 124°18'71147.3
2018-May-13 10:00N 48°44' W 123°16'6721833.1
2018-May-13 10:00N 49°38' W 124°14'69139.1
2018-May-13 09:30N 48°44' W 123°09'6523330.8
2018-May-13 09:30N 49°35' W 124°10'4 8.8
2018-May-13 09:00N 49°32' W 124°06'615799.8
2018-May-13 09:00N 48°46' W 123°03'4 7.1
2018-May-13 08:29N 48°50' W 123°03'5416120.1
2018-May-13 08:29N 49°28' W 124°01'4899.3
2018-May-13 08:00N 48°54' W 123°09'510.6
2018-May-13 07:30N 48°58' W 123°15'611.5
2018-May-13 07:00N 49°01' W 123°22'5 9.4
2018-May-13 06:30N 49°06' W 123°24'1750.9
2018-May-13 06:10N 49°23' W 123°28'1262.1
2018-May-13 05:58N 49°11' W 123°22'13140.8
2018-May-13 05:53N 49°24' W 123°25'922.2
2018-May-13 05:30N 49°16' W 123°20'4 9.0
2018-May-13 05:00N 49°19' W 123°15'0 0.7
2018-May-13 04:30N 49°20' W 123°15'0 0.6
2018-May-13 04:00N 49°20' W 123°15'5 9.3
2018-May-13 03:28N 49°20' W 123°23'2 4.0
2018-May-13 02:58N 49°20' W 123°26'3 6.0
2018-May-13 02:29N 49°18' W 123°22'2 4.0
2018-May-13 02:00N 49°16' W 123°24'0 0.2
2018-May-13 01:22N 49°16' W 123°24'0 0.2
2018-May-13 00:36N 49°17' W 123°24'0 1.2
2018-May-13 00:29N 49°17' W 123°24'0 0.4
2018-May-13 00:00N 49°17' W 123°24'0 0.4
2018-May-12 23:28N 49°17' W 123°24'1 2.7
2018-May-12 23:00N 49°16' W 123°23'0 0.5
2018-May-12 22:25N 49°17' W 123°23'0 0.3
2018-May-12 21:52N 49°17' W 123°23'0 0.0
2018-May-12 21:26N 49°17' W 123°23'1 1.1
2018-May-12 20:58N 49°17' W 123°22'0 0.0
2018-May-12 20:30N 49°17' W 123°22'0 0.3
2018-May-12 20:00N 49°17' W 123°22'0 0.1
2018-May-12 19:29N 49°17' W 123°22'513.0
2018-May-12 19:04N 49°22' W 123°19'441.7
2018-May-12 18:59N 49°18' W 123°20'279.7
2018-May-12 18:57N 49°21' W 123°20'3 6.1
2018-May-12 18:30N 49°19' W 123°17'1517.9
2018-May-12 18:30N 49°19' W 123°19'0 0.1
2018-May-12 18:00N 49°19' W 123°19'429.8
2018-May-12 17:53N 49°18' W 123°14'0 0.0
2018-May-12 17:29N 49°18' W 123°14'3409.6
2018-May-12 17:28N 49°20' W 123°18'1 1.3
2018-May-12 17:00N 49°20' W 123°17'3100.4
2018-May-12 16:59N 49°18' W 123°14'3 5.9
2018-May-12 16:31N 49°20' W 123°17'382.5
2018-May-12 16:29N 49°18' W 123°14'3 5.8
2018-May-12 16:00N 49°20' W 123°17'391.6
2018-May-12 15:59N 49°18' W 123°14'3 6.3
2018-May-12 15:30N 49°19' W 123°18'397.0
2018-May-12 15:29N 49°18' W 123°14'2 4.6
2018-May-12 15:00N 49°19' W 123°16'299.1
2018-May-12 14:59N 49°18' W 123°14'2 3.5
2018-May-12 14:31N 49°19' W 123°12'249.6
2018-May-12 14:29N 49°18' W 123°14'2 4.9
2018-May-12 13:59N 49°17' W 123°10'2619.1
2018-May-12 13:59N 49°18' W 123°14'2 4.9
2018-May-12 13:29N 49°17' W 123°10'2677.5
2018-May-12 13:29N 49°18' W 123°14'2 4.9
2018-May-12 12:59N 49°17' W 123°10'2629.7
2018-May-12 12:59N 49°18' W 123°14'0 0.0
2018-May-12 12:29N 49°18' W 123°14'252.1
2018-May-12 12:26N 49°17' W 123°10'0 0.0
2018-May-12 11:59N 49°17' W 123°10'2733.4
2018-May-12 11:59N 49°18' W 123°14'2 4.9
2018-May-12 11:29N 49°17' W 123°10'2677.5
2018-May-12 11:29N 49°18' W 123°14'2 4.9
2018-May-12 10:59N 49°17' W 123°10'2735.2
2018-May-12 10:59N 49°18' W 123°14'2 4.9
2018-May-12 10:29N 49°17' W 123°10'2722.3
2018-May-12 10:29N 49°18' W 123°14'2 4.8
2018-May-12 09:59N 49°17' W 123°10'31099.3
2018-May-12 09:59N 49°18' W 123°15'4 8.4
2018-May-12 09:30N 49°16' W 123°19'6307.3
2018-May-12 09:29N 49°17' W 123°10'816.1
2018-May-12 09:00N 49°13' W 123°19'897.6
2018-May-12 08:56N 49°17' W 123°10'0 0.0
2018-May-12 08:29N 49°17' W 123°10'11305.1
2018-May-12 08:27N 49°08' W 123°20'4 9.2
2018-May-12 08:00N 49°04' W 123°21'15768.6
2018-May-12 07:59N 49°17' W 123°10'0 0.0
2018-May-12 07:29N 49°17' W 123°10'17228.5
2018-May-12 07:24N 49°00' W 123°14'410.4
2018-May-12 07:00N 48°57' W 123°09'2062.0
2018-May-12 06:41N 49°17' W 123°10'0 0.0
2018-May-12 06:29N 49°17' W 123°10'242769.5
2018-May-12 06:28N 48°54' W 123°03'2448.5
2018-May-12 05:59N 49°17' W 123°10'31114.3
2018-May-12 05:43N 48°48' W 123°00'3191.6
2018-May-12 05:23N 49°17' W 123°10'33187.7
2018-May-12 05:12N 48°45' W 123°06'33146.6
2018-May-12 04:59N 49°17' W 123°10'341960.8
2018-May-12 04:58N 48°44' W 123°09'4 8.2
2018-May-12 04:30N 48°44' W 123°15'341220.5
2018-May-12 04:29N 49°17' W 123°10'3370.9
2018-May-12 04:00N 48°45' W 123°22'331217.7
2018-May-12 03:59N 49°17' W 123°10'3777.8
2018-May-12 03:30N 48°42' W 123°28'378899.7
2018-May-12 03:30N 49°18' W 123°10'4080.8
2018-May-12 03:00N 48°39' W 123°28'413990.4
2018-May-12 03:00N 49°19' W 123°15'2 3.7
2018-May-12 02:25N 49°20' W 123°18'41542.7
2018-May-12 02:21N 48°39' W 123°27'40115.9
2018-May-12 02:00N 49°19' W 123°20'40722.8
2018-May-12 01:57N 48°39' W 123°27'4089.3
2018-May-12 01:30N 49°19' W 123°20'40753.0
2018-May-12 01:27N 48°39' W 123°27'4091.7
2018-May-12 01:00N 49°19' W 123°18'40661.5
2018-May-12 00:57N 48°39' W 123°27'4085.9
2018-May-12 00:29N 49°19' W 123°18'401282.0
2018-May-12 00:27N 48°39' W 123°27'4090.0
2018-May-12 00:00N 49°19' W 123°18'40762.5
2018-May-11 23:57N 48°39' W 123°27'4091.2
2018-May-11 23:30N 49°19' W 123°19'40679.7
2018-May-11 23:27N 48°39' W 123°27'4086.9
2018-May-11 22:59N 49°19' W 123°19'401115.9
2018-May-11 22:57N 48°39' W 123°27'3989.0
2018-May-11 22:30N 49°18' W 123°21'39673.8
2018-May-11 22:27N 48°39' W 123°27'3885.8
2018-May-11 22:00N 49°17' W 123°23'38650.2
2018-May-11 21:57N 48°39' W 123°27'3883.3
2018-May-11 21:29N 49°17' W 123°23'38269.2
2018-May-11 21:21N 48°39' W 123°27'38110.3
2018-May-11 21:00N 49°17' W 123°23'38699.9
2018-May-11 20:57N 48°39' W 123°27'3886.3
2018-May-11 20:31N 49°17' W 123°23'38577.9
2018-May-11 20:27N 48°39' W 123°27'3885.2
2018-May-11 20:00N 49°17' W 123°23'38644.6
2018-May-11 19:57N 48°39' W 123°27'3877.3
2018-May-11 19:27N 49°17' W 123°24'38340.0
2018-May-11 19:21N 48°39' W 123°27'38109.5
2018-May-11 19:00N 49°17' W 123°24'38703.8
2018-May-11 18:57N 48°39' W 123°27'3884.9
2018-May-11 18:30N 49°17' W 123°24'38248.4
2018-May-11 18:21N 48°39' W 123°27'38109.2
2018-May-11 18:00N 49°17' W 123°24'38764.6
2018-May-11 17:57N 48°39' W 123°27'3888.0
2018-May-11 17:30N 49°18' W 123°25'38600.4
2018-May-11 17:27N 48°39' W 123°27'4092.0
2018-May-11 17:00N 49°19' W 123°20'40622.1
2018-May-11 16:57N 48°39' W 123°27'4192.4
2018-May-11 16:30N 49°20' W 123°18'41695.9
2018-May-11 16:27N 48°39' W 123°27'4184.1
2018-May-11 15:58N 49°19' W 123°18'412437.9
2018-May-11 15:57N 48°39' W 123°27'4189.6
2018-May-11 15:29N 49°19' W 123°18'41164.3
2018-May-11 15:15N 48°39' W 123°27'41175.0
2018-May-11 15:00N 49°20' W 123°15'41643.9
2018-May-11 14:57N 48°39' W 123°27'4192.9
2018-May-11 14:30N 49°19' W 123°12'41751.3
2018-May-11 14:27N 48°39' W 123°27'4088.4
2018-May-11 14:00N 49°17' W 123°10'40766.2
2018-May-11 13:57N 48°39' W 123°27'4079.4
2018-May-11 13:27N 49°17' W 123°10'4020353.4
2018-May-11 13:27N 48°39' W 123°27'0 0.0
2018-May-11 12:57N 48°39' W 123°27'40132.8
2018-May-11 12:39N 49°17' W 123°10'40195.7
2018-May-11 12:27N 48°39' W 123°27'40828.3
2018-May-11 12:24N 49°17' W 123°10'0 0.0
2018-May-11 12:00N 49°17' W 123°10'40766.0
2018-May-11 11:57N 48°39' W 123°27'4088.3
2018-May-11 11:30N 49°17' W 123°10'40112.5
2018-May-11 11:09N 48°39' W 123°27'40199.9
2018-May-11 10:57N 49°17' W 123°10'40388.3
2018-May-11 10:51N 48°39' W 123°27'4088.3
2018-May-11 10:24N 49°17' W 123°10'0 0.0
2018-May-11 09:48N 49°17' W 123°10'40157.1
2018-May-11 09:33N 48°39' W 123°27'0 0.0
2018-May-11 09:27N 48°39' W 123°27'40828.5
2018-May-11 09:24N 49°17' W 123°10'0 0.0
2018-May-11 09:00N 49°17' W 123°10'40762.0
2018-May-11 08:57N 48°39' W 123°27'4088.3
2018-May-11 08:30N 49°17' W 123°10'40762.0
2018-May-11 08:27N 48°39' W 123°27'0 0.0
2018-May-11 07:57N 48°39' W 123°27'40403.7
2018-May-11 07:51N 49°17' W 123°10'0 0.0
2018-May-11 07:30N 49°17' W 123°10'40766.2
2018-May-11 07:27N 48°39' W 123°27'4079.4
2018-May-11 06:57N 49°17' W 123°10'4023752.6
2018-May-11 06:57N 48°39' W 123°27'4079.4
2018-May-11 06:27N 49°17' W 123°10'0 0.1
2018-May-11 05:48N 49°17' W 123°10'1 5.1
2018-May-11 05:30N 49°19' W 123°11'2 3.5
2018-May-11 05:00N 49°20' W 123°13'1 1.6
2018-May-11 04:30N 49°20' W 123°14'1 2.2
2018-May-11 04:00N 49°20' W 123°16'41267.6
2018-May-11 03:51N 48°39' W 123°27'41115.3
2018-May-11 03:29N 49°19' W 123°17'41117.4
2018-May-11 03:09N 48°39' W 123°27'41265.7
2018-May-11 02:59N 49°19' W 123°17'41871.4
2018-May-11 02:57N 48°39' W 123°27'4192.5
2018-May-11 02:30N 49°19' W 123°17'41252.8
2018-May-11 02:21N 48°39' W 123°27'41121.4
2018-May-11 02:00N 49°19' W 123°18'41631.6
2018-May-11 01:57N 48°39' W 123°27'4187.0
2018-May-11 01:29N 49°19' W 123°18'411218.9
2018-May-11 01:27N 48°39' W 123°27'4091.1
2018-May-11 01:00N 49°19' W 123°18'40732.6
2018-May-11 00:57N 48°39' W 123°27'4090.3
2018-May-11 00:30N 49°19' W 123°20'40684.0
2018-May-11 00:27N 48°39' W 123°27'4085.0
2018-May-10 23:58N 49°19' W 123°19'401331.5
2018-May-10 23:57N 48°39' W 123°27'4091.3
2018-May-10 23:30N 49°19' W 123°18'40692.0
2018-May-10 23:27N 48°39' W 123°27'4089.2
2018-May-10 22:59N 49°19' W 123°18'40861.0
2018-May-10 22:57N 48°39' W 123°27'4092.7
2018-May-10 22:30N 49°19' W 123°18'40636.1
2018-May-10 22:27N 48°39' W 123°27'0 0.0
2018-May-10 22:00N 48°39' W 123°27'412054.2
2018-May-10 21:59N 49°19' W 123°18'4 7.7
2018-May-10 21:30N 49°18' W 123°24'396680.6
2018-May-10 21:30N 48°39' W 123°27'4181.6
2018-May-10 21:00N 49°19' W 123°18'41740.7
2018-May-10 20:56N 48°39' W 123°27'4192.5
2018-May-10 20:30N 49°20' W 123°17'415453.2
2018-May-10 20:29N 48°39' W 123°27'4184.8
2018-May-10 20:00N 49°20' W 123°14'41970.7
2018-May-10 19:58N 48°39' W 123°27'4189.8
2018-May-10 19:30N 49°20' W 123°15'41918.7
2018-May-10 19:28N 48°39' W 123°27'4188.0
2018-May-10 19:00N 49°19' W 123°15'41299.5
2018-May-10 18:51N 48°39' W 123°27'0 0.0
2018-May-10 18:29N 48°39' W 123°27'41147503.8
2018-May-10 18:29N 49°19' W 123°15'0 0.2
2018-May-10 18:00N 49°19' W 123°15'41249.1
2018-May-10 17:51N 48°39' W 123°27'41119.3
2018-May-10 17:30N 49°20' W 123°15'41677.2
2018-May-10 17:26N 48°39' W 123°27'4194.7
2018-May-10 17:00N 49°19' W 123°15'411990.4
2018-May-10 16:59N 48°39' W 123°27'4185.7
2018-May-10 16:30N 49°20' W 123°15'41339.1
2018-May-10 16:23N 48°39' W 123°27'4197.8
2018-May-10 15:58N 49°20' W 123°14'411412.5
2018-May-10 15:56N 48°39' W 123°27'4196.0
2018-May-10 15:30N 49°20' W 123°14'41587.9
2018-May-10 15:26N 48°39' W 123°27'4196.5
2018-May-10 15:00N 49°20' W 123°14'41566.3
2018-May-10 14:56N 48°39' W 123°27'4194.9
2018-May-10 14:30N 49°19' W 123°12'41156.0
2018-May-10 14:14N 48°39' W 123°27'40136.3
2018-May-10 13:57N 49°17' W 123°10'403850.6
2018-May-10 13:56N 48°39' W 123°27'  

Dump ship's entire track history